Time;durP1;ratioP1;P1;durP2;ratioP2;P2;SDS_P1;SDS_P2;PMS_P1;PMS_P2;Temp;Humidity;BMP_temperature;BMP_pressure;BME280_temperature;BME280_humidity;BME280_pressure;Samples;Min_cycle;Max_cycle;Signal;HPM_P1;HPM_P2
2023/06/15 00:00:24;;;;;;;4.30;3.90;;;22.30;39.40;;;;;;4925125;29;21066;-87
2023/06/15 00:02:51;;;;;;;4.80;4.20;;;22.30;39.50;;;;;;4936709;29;20458;-86
2023/06/15 00:05:20;;;;;;;5.10;3.50;;;22.30;39.60;;;;;;4900072;29;20451;-86
2023/06/15 00:07:47;;;;;;;3.97;3.67;;;22.30;39.80;;;;;;4925053;28;20585;-85
2023/06/15 00:10:14;;;;;;;4.23;3.87;;;22.30;39.90;;;;;;4917621;29;20479;-86
2023/06/15 00:12:42;;;;;;;4.30;3.90;;;22.30;39.80;;;;;;4931410;29;20856;-86
2023/06/15 00:15:09;;;;;;;3.60;3.30;;;22.20;39.90;;;;;;4931587;29;20454;-87
2023/06/15 00:17:37;;;;;;;5.00;3.70;;;22.00;39.90;;;;;;4930308;29;20848;-85
2023/06/15 00:20:08;;;;;;;3.90;3.60;;;21.60;40.80;;;;;;4909852;29;20474;-85
2023/06/15 00:22:38;;;;;;;4.47;3.83;;;21.40;40.90;;;;;;4932882;29;20494;-85
2023/06/15 00:25:06;;;;;;;5.23;4.73;;;21.00;41.40;;;;;;4914988;29;20442;-85
2023/06/15 00:27:34;;;;;;;4.00;3.70;;;21.10;41.90;;;;;;4916363;29;20447;-86
2023/06/15 00:30:01;;;;;;;4.90;4.50;;;21.30;41.60;;;;;;4908343;29;20920;-86
2023/06/15 00:32:30;;;;;;;4.50;4.10;;;21.40;40.50;;;;;;4934625;29;20453;-86
2023/06/15 00:34:57;;;;;;;8.40;3.90;;;21.50;41.50;;;;;;4937414;29;20491;-86
2023/06/15 00:37:24;;;;;;;4.33;3.83;;;21.50;41.90;;;;;;4917919;29;20455;-85
2023/06/15 00:39:52;;;;;;;6.00;4.00;;;21.60;42.00;;;;;;4902629;29;20466;-85
2023/06/15 00:42:19;;;;;;;5.03;4.10;;;21.70;42.10;;;;;;4904098;29;20458;-86
2023/06/15 00:44:46;;;;;;;4.73;3.93;;;21.70;42.50;;;;;;4921457;29;21040;-86
2023/06/15 00:47:14;;;;;;;4.87;4.37;;;21.80;42.70;;;;;;4903690;29;20945;-86
2023/06/15 00:49:41;;;;;;;4.50;4.10;;;21.80;42.50;;;;;;4907576;29;20851;-86
2023/06/15 00:52:09;;;;;;;4.50;4.20;;;21.80;42.60;;;;;;4932307;29;20461;-86
2023/06/15 00:54:38;;;;;;;4.10;3.70;;;21.80;42.30;;;;;;4922012;29;20474;-87
2023/06/15 00:57:08;;;;;;;4.27;3.83;;;21.70;42.00;;;;;;4918834;29;20456;-86
2023/06/15 00:59:35;;;;;;;4.30;3.90;;;21.70;42.10;;;;;;4929517;29;21285;-86
2023/06/15 01:02:04;;;;;;;4.13;3.83;;;21.70;42.00;;;;;;4900974;29;20459;-86
2023/06/15 01:04:32;;;;;;;4.57;3.83;;;21.70;41.40;;;;;;4923824;29;21234;-86
2023/06/15 01:07:04;;;;;;;3.97;3.60;;;21.60;40.70;;;;;;4922870;29;20490;-86
2023/06/15 01:09:37;;;;;;;7.03;3.87;;;21.40;41.50;;;;;;4907901;29;20481;-87
2023/06/15 01:12:11;;;;;;;4.63;4.20;;;21.40;41.40;;;;;;4901451;29;20462;-85
2023/06/15 01:14:39;;;;;;;4.80;4.17;;;21.40;42.20;;;;;;4931006;28;20501;-87
2023/06/15 01:17:10;;;;;;;4.80;4.40;;;21.40;42.30;;;;;;4922381;29;20459;-85
2023/06/15 01:19:53;;;;;;;5.73;4.70;;;21.40;42.70;;;;;;4921270;29;20568;-86
2023/06/15 01:22:24;;;;;;;4.10;3.80;;;21.40;42.60;;;;;;4918052;29;20473;-87
2023/06/15 01:25:04;;;;;;;5.50;3.80;;;21.40;42.70;;;;;;4923002;29;20553;-86
2023/06/15 01:27:34;;;;;;;7.87;4.87;;;21.40;42.70;;;;;;4931491;29;20889;-87
2023/06/15 01:30:04;;;;;;;4.93;4.30;;;21.30;42.20;;;;;;4904929;29;20475;-87
2023/06/15 01:32:34;;;;;;;4.27;3.87;;;21.30;43.10;;;;;;4913706;29;20490;-86
2023/06/15 01:35:01;;;;;;;4.60;4.30;;;21.20;43.00;;;;;;4906658;29;20470;-86
2023/06/15 01:37:29;;;;;;;4.40;4.00;;;21.20;43.10;;;;;;4919522;29;20509;-86
2023/06/15 01:39:57;;;;;;;5.47;4.97;;;21.20;43.30;;;;;;4925879;29;20479;-87
2023/06/15 01:42:24;;;;;;;5.50;4.10;;;21.20;43.80;;;;;;4947055;28;21006;-86
2023/06/15 01:44:55;;;;;;;4.63;4.23;;;21.20;43.80;;;;;;4908053;29;20454;-87
2023/06/15 01:47:23;;;;;;;4.60;4.20;;;21.10;43.80;;;;;;4919235;29;20463;-86
2023/06/15 01:49:51;;;;;;;5.30;4.90;;;20.90;42.70;;;;;;4921208;29;20474;-86
2023/06/15 01:52:18;;;;;;;4.77;4.37;;;20.70;41.80;;;;;;4904022;29;20545;-86
2023/06/15 01:54:45;;;;;;;5.37;4.87;;;20.60;43.50;;;;;;4930467;29;20479;-86
2023/06/15 01:57:13;;;;;;;6.60;4.40;;;20.70;44.10;;;;;;4911091;29;20450;-86
2023/06/15 01:59:40;;;;;;;5.07;4.57;;;20.70;44.00;;;;;;4910945;29;20474;-86
2023/06/15 02:02:09;;;;;;;5.40;4.90;;;20.70;44.50;;;;;;4907287;29;20462;-87
2023/06/15 02:04:36;;;;;;;5.20;4.80;;;20.70;43.90;;;;;;4949074;28;20479;-86
2023/06/15 02:07:03;;;;;;;4.80;4.40;;;20.60;44.20;;;;;;4926469;29;20463;-86
2023/06/15 02:09:30;;;;;;;5.03;4.63;;;20.40;44.60;;;;;;4918017;29;20470;-86
2023/06/15 02:11:58;;;;;;;4.67;4.20;;;20.30;44.40;;;;;;4909684;29;20469;-86
2023/06/15 02:14:25;;;;;;;4.60;4.03;;;20.20;43.90;;;;;;4911839;29;20496;-86
2023/06/15 02:16:52;;;;;;;4.73;4.33;;;20.30;44.50;;;;;;4918795;29;20948;-86
2023/06/15 02:19:21;;;;;;;6.47;4.00;;;20.30;44.70;;;;;;4912502;29;20856;-86
2023/06/15 02:21:49;;;;;;;5.07;4.57;;;20.40;44.40;;;;;;4932958;29;20493;-86
2023/06/15 02:24:17;;;;;;;4.70;4.20;;;20.50;44.60;;;;;;4925937;29;20814;-85
2023/06/15 02:26:45;;;;;;;4.67;4.27;;;20.50;44.50;;;;;;4904539;29;20450;-85
2023/06/15 02:29:14;;;;;;;4.43;4.00;;;20.20;44.80;;;;;;4936554;28;20553;-86
2023/06/15 02:31:40;;;;;;;4.60;4.10;;;20.20;43.70;;;;;;4940539;29;20518;-86
2023/06/15 02:34:08;;;;;;;4.70;4.23;;;20.10;43.90;;;;;;4928002;29;20565;-86
2023/06/15 02:36:37;;;;;;;4.87;4.47;;;20.10;44.80;;;;;;4926522;29;20545;-87
2023/06/15 02:39:05;;;;;;;4.60;4.20;;;20.20;45.40;;;;;;4922530;29;20462;-86
2023/06/15 02:41:32;;;;;;;4.50;4.10;;;20.20;46.20;;;;;;4932692;29;20845;-86
2023/06/15 02:44:01;;;;;;;8.47;4.77;;;20.20;47.00;;;;;;4922664;29;21510;-85
2023/06/15 02:46:31;;;;;;;5.63;5.13;;;20.20;47.90;;;;;;4908152;29;20443;-86
2023/06/15 02:48:58;;;;;;;5.87;5.10;;;20.20;48.00;;;;;;4911848;29;20497;-85
2023/06/15 02:51:25;;;;;;;5.80;4.40;;;20.20;47.80;;;;;;4924690;29;20458;-86
2023/06/15 02:53:54;;;;;;;5.80;4.20;;;20.30;47.70;;;;;;4927526;29;20534;-85
2023/06/15 02:56:22;;;;;;;5.03;4.63;;;20.30;47.40;;;;;;4911455;29;20451;-86
2023/06/15 02:58:53;;;;;;;4.00;3.60;;;20.30;47.00;;;;;;4943369;28;20485;-85
2023/06/15 03:01:49;;;;;;;5.10;4.40;;;20.20;46.60;;;;;;4920489;29;20473;-87
2023/06/15 03:04:17;;;;;;;6.50;4.70;;;20.30;46.40;;;;;;4926344;29;20833;-87
2023/06/15 03:06:46;;;;;;;5.03;4.63;;;20.20;46.60;;;;;;4932925;28;20451;-88
2023/06/15 03:09:21;;;;;;;5.63;5.13;;;20.20;46.70;;;;;;4923548;29;20567;-87
2023/06/15 03:11:50;;;;;;;5.50;5.00;;;20.10;46.60;;;;;;4927871;29;20881;-87
2023/06/15 03:14:19;;;;;;;5.60;5.20;;;20.00;47.10;;;;;;4925089;29;20533;-88
2023/06/15 03:16:47;;;;;;;4.87;4.47;;;19.90;47.00;;;;;;4921188;29;20509;-87
2023/06/15 03:19:16;;;;;;;5.20;4.80;;;19.90;46.80;;;;;;4924742;29;20483;-87
2023/06/15 03:21:43;;;;;;;5.03;4.50;;;19.80;46.30;;;;;;4941374;29;20550;-86
2023/06/15 03:24:10;;;;;;;6.57;4.87;;;19.80;46.70;;;;;;4914941;29;20622;-86
2023/06/15 03:26:42;;;;;;;4.47;4.07;;;19.90;46.70;;;;;;4907037;29;20470;-88
2023/06/15 03:29:10;;;;;;;5.30;4.80;;;19.80;46.90;;;;;;4926217;29;20566;-88
2023/06/15 03:31:41;;;;;;;5.40;4.90;;;19.40;47.10;;;;;;4903044;29;20458;-86
2023/06/15 03:34:09;;;;;;;5.10;4.60;;;19.20;47.40;;;;;;4906121;29;20469;-86
2023/06/15 03:36:36;;;;;;;6.17;4.93;;;19.00;48.00;;;;;;4922962;29;20827;-85
2023/06/15 03:39:04;;;;;;;4.97;4.47;;;19.20;48.10;;;;;;4925157;29;20481;-86
2023/06/15 03:41:31;;;;;;;4.23;3.83;;;19.30;47.50;;;;;;4908243;29;20491;-86
2023/06/15 03:44:00;;;;;;;7.23;4.80;;;19.40;47.60;;;;;;4925334;29;20983;-85
2023/06/15 03:46:28;;;;;;;4.90;4.40;;;19.50;47.30;;;;;;4917847;29;20489;-85
2023/06/15 03:48:56;;;;;;;5.27;4.80;;;19.60;47.90;;;;;;4920839;29;20503;-86
2023/06/15 03:51:23;;;;;;;5.17;4.53;;;19.50;47.80;;;;;;4921701;29;20458;-85
2023/06/15 03:53:50;;;;;;;5.40;4.90;;;19.50;47.90;;;;;;4907415;29;20463;-87
2023/06/15 03:56:17;;;;;;;4.83;4.43;;;19.60;47.40;;;;;;4919556;29;20459;-86
2023/06/15 03:58:44;;;;;;;5.83;5.00;;;19.60;47.70;;;;;;4920177;28;20507;-85
2023/06/15 04:01:13;;;;;;;5.10;4.60;;;19.70;47.70;;;;;;4920270;29;21039;-86
2023/06/15 04:03:40;;;;;;;5.90;5.10;;;19.70;47.50;;;;;;4919763;29;20473;-87
2023/06/15 04:06:08;;;;;;;4.93;4.50;;;19.70;47.50;;;;;;4922508;29;20548;-86
2023/06/15 04:08:36;;;;;;;4.73;4.33;;;19.70;47.70;;;;;;4899277;29;20471;-86
2023/06/15 04:11:04;;;;;;;6.23;5.03;;;19.60;47.80;;;;;;4909782;29;20443;-85
2023/06/15 04:13:31;;;;;;;5.60;5.10;;;19.70;47.90;;;;;;4904376;29;20457;-88
2023/06/15 04:15:58;;;;;;;5.87;5.37;;;19.70;47.80;;;;;;4920010;29;20488;-87
2023/06/15 04:18:26;;;;;;;6.43;5.70;;;19.70;47.80;;;;;;4914659;29;20478;-86
2023/06/15 04:20:54;;;;;;;6.37;5.03;;;19.70;48.10;;;;;;4923275;29;20538;-87
2023/06/15 04:23:21;;;;;;;5.20;4.70;;;19.70;47.80;;;;;;4941506;29;20460;-86
2023/06/15 04:25:49;;;;;;;6.03;5.37;;;19.70;47.50;;;;;;4908269;29;20450;-88
2023/06/15 04:28:16;;;;;;;5.10;4.60;;;19.70;47.60;;;;;;4913512;29;20475;-87
2023/06/15 04:30:46;;;;;;;6.87;5.63;;;19.70;47.10;;;;;;4904281;29;21018;-88
2023/06/15 04:33:17;;;;;;;5.77;5.27;;;19.70;48.00;;;;;;4923642;29;20489;-88
2023/06/15 04:35:46;;;;;;;6.67;5.73;;;19.70;48.30;;;;;;4899765;29;20553;-87
2023/06/15 04:38:14;;;;;;;5.27;4.77;;;19.70;48.50;;;;;;4924156;29;20568;-87
2023/06/15 04:40:46;;;;;;;4.90;4.50;;;19.70;48.60;;;;;;4922707;29;20573;-88
2023/06/15 04:43:14;;;;;;;4.83;4.43;;;19.70;48.80;;;;;;4909990;29;20487;-88
2023/06/15 04:45:41;;;;;;;5.67;5.17;;;19.70;48.90;;;;;;4932458;29;21145;-88
2023/06/15 04:48:09;;;;;;;5.33;4.80;;;19.80;48.80;;;;;;4902823;29;20869;-88
2023/06/15 04:50:37;;;;;;;6.00;5.40;;;19.80;49.30;;;;;;4923283;29;20454;-88
2023/06/15 04:53:05;;;;;;;5.50;5.00;;;19.80;49.40;;;;;;4903507;29;20470;-86
2023/06/15 04:55:32;;;;;;;7.40;5.27;;;19.90;49.70;;;;;;4908984;29;20855;-89
2023/06/15 04:58:01;;;;;;;6.80;5.20;;;19.90;49.60;;;;;;4919797;28;20462;-87
2023/06/15 05:00:29;;;;;;;6.70;5.80;;;19.90;49.70;;;;;;4918566;29;20458;-88
2023/06/15 05:02:59;;;;;;;6.00;5.37;;;19.90;49.70;;;;;;4923203;29;20486;-87
2023/06/15 05:05:26;;;;;;;5.30;4.80;;;20.00;49.90;;;;;;4915164;29;20455;-87
2023/06/15 05:07:55;;;;;;;5.87;5.47;;;20.00;49.70;;;;;;4912879;29;20457;-85
2023/06/15 05:10:23;;;;;;;8.63;5.40;;;20.10;49.90;;;;;;4923039;29;21130;-84
2023/06/15 05:12:51;;;;;;;6.37;5.50;;;20.10;49.90;;;;;;4927843;29;20513;-85
2023/06/15 05:15:18;;;;;;;6.07;4.47;;;20.10;50.40;;;;;;4918022;29;20642;-85
2023/06/15 05:17:46;;;;;;;10.73;5.53;;;20.20;50.10;;;;;;4911726;29;20461;-85
2023/06/15 05:20:14;;;;;;;8.20;5.43;;;20.20;50.00;;;;;;4901941;29;21379;-85
2023/06/15 05:22:41;;;;;;;6.07;5.30;;;20.20;49.90;;;;;;4894628;29;20944;-86
2023/06/15 05:25:09;;;;;;;6.77;5.23;;;20.20;50.40;;;;;;4922561;29;20447;-85
2023/06/15 05:27:38;;;;;;;11.73;5.67;;;20.30;49.60;;;;;;4902266;29;20973;-85
2023/06/15 05:30:08;;;;;;;5.70;5.07;;;20.40;49.00;;;;;;4911323;29;20481;-85
2023/06/15 05:32:37;;;;;;;7.27;5.63;;;20.50;49.20;;;;;;4918989;29;20451;-85
2023/06/15 05:35:07;;;;;;;6.40;5.50;;;20.50;49.10;;;;;;4941550;28;20538;-84
2023/06/15 05:37:36;;;;;;;6.93;5.40;;;20.50;49.40;;;;;;4912085;29;21195;-85
2023/06/15 05:40:05;;;;;;;10.20;5.30;;;20.50;48.90;;;;;;4909126;29;21454;-86
2023/06/15 05:42:33;;;;;;;6.67;5.50;;;20.50;48.90;;;;;;4918427;29;20980;-87
2023/06/15 05:45:02;;;;;;;8.47;5.40;;;20.60;49.10;;;;;;4909921;29;20458;-85
2023/06/15 05:47:29;;;;;;;5.63;5.00;;;20.70;49.50;;;;;;4934987;29;20459;-85
2023/06/15 05:49:56;;;;;;;11.63;5.23;;;20.80;49.60;;;;;;4904840;29;20531;-85
2023/06/15 05:52:24;;;;;;;6.33;4.50;;;21.00;49.10;;;;;;4925213;29;20554;-85
2023/06/15 05:54:51;;;;;;;5.67;5.03;;;21.10;48.90;;;;;;4922928;29;20472;-87
2023/06/15 05:57:18;;;;;;;13.30;5.20;;;21.40;49.20;;;;;;4926896;29;20463;-88
2023/06/15 05:59:46;;;;;;;6.40;5.23;;;21.50;47.30;;;;;;4909438;29;20481;-88
2023/06/15 06:02:15;;;;;;;5.20;4.70;;;21.70;48.00;;;;;;4927938;29;20459;-87
2023/06/15 06:04:42;;;;;;;6.57;4.90;;;21.80;46.90;;;;;;4928263;29;20460;-87
2023/06/15 06:07:10;;;;;;;5.13;4.60;;;22.00;47.00;;;;;;4933240;29;20453;-88
2023/06/15 06:09:37;;;;;;;6.93;5.03;;;21.80;47.20;;;;;;4911291;29;20484;-88
2023/06/15 06:12:06;;;;;;;7.17;5.27;;;21.60;47.90;;;;;;4935397;29;21071;-88
2023/06/15 06:14:34;;;;;;;5.77;4.87;;;21.80;48.10;;;;;;4931708;29;20461;-88
2023/06/15 06:17:02;;;;;;;6.03;5.50;;;21.70;47.60;;;;;;4903248;29;20465;-87
2023/06/15 06:19:30;;;;;;;8.30;4.87;;;21.80;47.70;;;;;;4921182;29;20482;-88
2023/06/15 06:21:57;;;;;;;9.43;5.13;;;22.00;48.10;;;;;;4910535;29;20505;-88
2023/06/15 06:24:24;;;;;;;6.70;5.00;;;22.20;47.60;;;;;;4906758;29;20530;-87
2023/06/15 06:26:54;;;;;;;9.60;4.50;;;22.30;47.40;;;;;;4922650;29;20450;-87
2023/06/15 06:29:21;;;;;;;10.13;5.10;;;22.50;47.50;;;;;;4936421;28;20972;-87
2023/06/15 06:31:48;;;;;;;5.27;4.63;;;22.80;47.10;;;;;;4931741;28;20459;-87
2023/06/15 06:34:15;;;;;;;7.20;5.00;;;23.00;46.60;;;;;;4925322;29;20450;-86
2023/06/15 06:36:43;;;;;;;5.17;4.67;;;23.10;45.70;;;;;;4922490;29;20486;-87
2023/06/15 06:39:10;;;;;;;5.23;4.70;;;23.10;45.20;;;;;;4932595;28;20478;-87
2023/06/15 06:41:37;;;;;;;6.73;4.63;;;22.70;45.40;;;;;;4905800;29;20497;-87
2023/06/15 06:44:04;;;;;;;9.83;5.17;;;22.70;45.40;;;;;;4930405;28;20995;-86
2023/06/15 06:46:31;;;;;;;9.63;5.00;;;22.90;45.20;;;;;;4918070;29;20447;-86
2023/06/15 06:48:58;;;;;;;11.30;5.47;;;22.90;45.60;;;;;;4908148;29;20481;-86
2023/06/15 06:51:25;;;;;;;5.90;4.73;;;23.00;45.80;;;;;;4934975;29;20466;-85
2023/06/15 06:53:53;;;;;;;7.10;4.93;;;23.10;45.90;;;;;;4930888;29;20473;-86
2023/06/15 06:56:21;;;;;;;8.83;5.07;;;23.00;45.70;;;;;;4907878;29;20577;-88
2023/06/15 06:58:47;;;;;;;5.03;4.63;;;23.10;45.20;;;;;;4930951;28;20983;-86
2023/06/15 07:01:14;;;;;;;5.10;4.60;;;23.20;45.30;;;;;;4911132;29;20443;-86
2023/06/15 07:03:41;;;;;;;7.80;4.60;;;23.30;45.30;;;;;;4936883;29;20458;-86
2023/06/15 07:06:08;;;;;;;5.47;4.20;;;23.20;45.50;;;;;;4902698;29;20447;-86
2023/06/15 07:08:36;;;;;;;6.03;5.30;;;23.20;45.30;;;;;;4933021;29;20477;-87
2023/06/15 07:11:04;;;;;;;5.33;4.80;;;23.60;45.60;;;;;;4910031;29;20474;-88
2023/06/15 07:13:32;;;;;;;4.97;4.47;;;23.70;44.30;;;;;;4908510;29;20458;-87
2023/06/15 07:15:59;;;;;;;5.17;4.70;;;23.80;45.10;;;;;;4899041;29;20524;-85
2023/06/15 07:18:26;;;;;;;5.30;4.80;;;23.80;44.20;;;;;;4914506;29;20469;-86
2023/06/15 07:20:54;;;;;;;5.03;4.00;;;23.90;43.80;;;;;;4917747;29;20446;-85
2023/06/15 07:23:22;;;;;;;5.30;4.80;;;23.90;44.00;;;;;;4930350;28;20459;-86
2023/06/15 07:25:49;;;;;;;4.97;4.53;;;23.90;43.50;;;;;;4905763;29;20456;-85
2023/06/15 07:28:17;;;;;;;6.93;5.17;;;23.90;43.50;;;;;;4907491;29;20471;-85
2023/06/15 07:30:46;;;;;;;8.77;4.70;;;24.10;43.00;;;;;;4903590;29;20459;-86
2023/06/15 07:33:13;;;;;;;9.00;4.70;;;24.40;42.20;;;;;;4930229;29;20534;-86
2023/06/15 07:35:40;;;;;;;4.63;4.23;;;24.50;41.70;;;;;;4918377;29;20466;-86
2023/06/15 07:38:06;;;;;;;5.60;5.10;;;24.80;42.10;;;;;;4901279;28;20453;-86
2023/06/15 07:40:33;;;;;;;5.20;4.80;;;25.10;41.40;;;;;;4908003;29;20451;-84
2023/06/15 07:43:00;;;;;;;5.10;4.60;;;25.00;39.80;;;;;;4907931;29;20450;-85
2023/06/15 07:45:29;;;;;;;5.97;5.37;;;24.90;41.00;;;;;;4920813;29;20459;-86
2023/06/15 07:47:56;;;;;;;4.43;4.03;;;25.10;40.90;;;;;;4923488;29;20556;-86
2023/06/15 07:50:23;;;;;;;5.50;5.00;;;25.30;40.60;;;;;;4923464;29;20537;-86
2023/06/15 07:52:51;;;;;;;5.83;5.23;;;25.40;38.60;;;;;;4905325;29;20551;-85
2023/06/15 07:55:18;;;;;;;5.00;4.50;;;25.50;38.40;;;;;;4941581;28;20458;-86
2023/06/15 07:57:45;;;;;;;5.00;4.50;;;25.70;39.10;;;;;;4929144;29;20454;-85
2023/06/15 08:00:13;;;;;;;4.20;3.90;;;25.70;40.00;;;;;;4922558;29;20474;-86
2023/06/15 08:02:41;;;;;;;5.70;4.40;;;25.80;39.00;;;;;;4902140;29;20455;-86
2023/06/15 08:05:09;;;;;;;5.87;4.87;;;25.90;39.90;;;;;;4913878;29;20456;-86
2023/06/15 08:07:36;;;;;;;5.30;4.63;;;26.20;41.00;;;;;;4905955;29;20451;-86
2023/06/15 08:10:03;;;;;;;8.27;4.97;;;26.30;39.10;;;;;;4923408;29;21286;-86
2023/06/15 08:12:30;;;;;;;4.90;4.40;;;26.50;38.30;;;;;;4940788;28;20817;-86
2023/06/15 08:14:57;;;;;;;7.73;5.10;;;26.50;36.60;;;;;;4906492;29;20458;-86
2023/06/15 08:17:25;;;;;;;4.97;4.47;;;26.60;36.20;;;;;;4925060;29;20483;-86
2023/06/15 08:19:54;;;;;;;5.90;4.67;;;26.40;36.60;;;;;;4894184;29;20478;-86
2023/06/15 08:22:21;;;;;;;5.20;4.70;;;26.30;35.60;;;;;;4935011;29;20457;-87
2023/06/15 08:24:48;;;;;;;6.10;5.37;;;26.40;35.10;;;;;;4924559;29;20446;-88
2023/06/15 08:27:15;;;;;;;5.13;4.73;;;26.20;35.00;;;;;;4933467;29;20475;-87
2023/06/15 08:29:44;;;;;;;5.57;4.70;;;26.00;34.40;;;;;;4920064;29;20545;-86
2023/06/15 08:32:13;;;;;;;6.07;5.43;;;26.00;34.50;;;;;;4932336;29;20446;-86
2023/06/15 08:34:42;;;;;;;7.07;5.67;;;26.20;33.20;;;;;;4922811;29;20855;-85
2023/06/15 08:37:11;;;;;;;6.27;5.67;;;26.10;33.30;;;;;;4916031;29;20537;-88
2023/06/15 08:39:38;;;;;;;6.57;5.73;;;26.10;34.10;;;;;;4923260;29;21228;-87
2023/06/15 08:42:07;;;;;;;6.30;5.80;;;26.30;33.70;;;;;;4909223;29;20450;-88
2023/06/15 08:44:34;;;;;;;6.10;5.60;;;26.70;33.50;;;;;;4936328;28;20446;-86
2023/06/15 08:47:03;;;;;;;5.93;5.43;;;26.90;32.20;;;;;;4924760;29;20446;-87
2023/06/15 08:49:31;;;;;;;5.90;5.40;;;26.80;32.40;;;;;;4924989;29;20498;-86
2023/06/15 08:52:00;;;;;;;6.43;5.33;;;27.00;32.90;;;;;;4923434;29;20469;-87
2023/06/15 08:54:31;;;;;;;5.97;5.47;;;27.20;31.80;;;;;;4907993;29;20467;-87
2023/06/15 08:57:00;;;;;;;6.07;5.37;;;27.30;31.70;;;;;;4930116;29;20532;-86
2023/06/15 08:59:27;;;;;;;8.90;5.63;;;27.40;31.00;;;;;;4920575;29;20478;-86
2023/06/15 09:01:55;;;;;;;5.80;5.30;;;27.40;30.80;;;;;;4908231;29;20535;-86
2023/06/15 09:04:22;;;;;;;6.20;5.50;;;27.60;30.40;;;;;;4923215;29;20455;-86
2023/06/15 09:06:51;;;;;;;7.00;5.70;;;27.90;30.30;;;;;;4901671;29;20447;-87
2023/06/15 09:09:18;;;;;;;6.10;5.50;;;27.80;28.50;;;;;;4922597;29;20548;-87
2023/06/15 09:11:46;;;;;;;7.40;5.87;;;27.80;29.30;;;;;;4907856;29;20447;-86
2023/06/15 09:14:13;;;;;;;4.83;4.40;;;27.90;29.20;;;;;;4907362;29;20493;-87
2023/06/15 09:16:42;;;;;;;8.00;5.87;;;28.10;28.50;;;;;;4906922;29;20483;-86
2023/06/15 09:19:11;;;;;;;5.77;5.27;;;28.00;29.00;;;;;;4921658;29;20484;-86
2023/06/15 09:21:43;;;;;;;5.63;5.13;;;28.10;29.20;;;;;;4908270;29;20816;-86
2023/06/15 09:24:11;;;;;;;5.27;4.70;;;28.10;29.00;;;;;;4924869;29;20442;-86
2023/06/15 09:26:40;;;;;;;5.67;5.07;;;28.00;28.50;;;;;;4910483;29;20453;-86
2023/06/15 09:29:12;;;;;;;6.20;5.60;;;28.10;29.60;;;;;;4900310;29;21084;-87
2023/06/15 09:31:40;;;;;;;6.57;4.60;;;28.30;28.10;;;;;;4913800;29;20451;-87
2023/06/15 09:34:08;;;;;;;5.17;4.67;;;28.30;28.70;;;;;;4930478;29;20498;-87
2023/06/15 09:36:39;;;;;;;4.53;4.13;;;28.60;28.60;;;;;;4923827;29;20474;-88
2023/06/15 09:39:09;;;;;;;7.20;4.90;;;29.00;27.40;;;;;;4933322;29;20470;-88
2023/06/15 09:41:36;;;;;;;4.77;4.30;;;28.40;27.40;;;;;;4920731;29;20463;-88
2023/06/15 09:44:06;;;;;;;9.20;4.77;;;28.50;28.80;;;;;;4923487;29;20466;-88
2023/06/15 09:46:38;;;;;;;7.20;4.97;;;28.80;29.10;;;;;;4924161;29;20462;-87
2023/06/15 09:49:20;;;;;;;5.40;5.00;;;29.20;29.40;;;;;;4932985;29;20561;-88
2023/06/15 09:51:49;;;;;;;5.60;5.10;;;29.60;28.80;;;;;;4902343;29;20446;-86
2023/06/15 09:54:18;;;;;;;4.50;4.10;;;29.90;27.60;;;;;;4919527;29;20497;-87
2023/06/15 09:56:48;;;;;;;4.97;4.47;;;29.90;27.00;;;;;;4917594;29;21034;-86
2023/06/15 09:59:15;;;;;;;5.30;4.33;;;30.20;27.40;;;;;;4920330;29;20477;-87
2023/06/15 10:01:46;;;;;;;5.37;3.90;;;30.50;27.50;;;;;;4920655;29;20454;-86
2023/06/15 10:04:14;;;;;;;4.10;3.80;;;31.00;26.80;;;;;;4903692;29;20450;-86
2023/06/15 10:06:43;;;;;;;4.30;3.90;;;30.70;26.30;;;;;;4920306;29;20459;-86
2023/06/15 10:09:12;;;;;;;4.60;4.07;;;30.50;25.90;;;;;;4929037;29;20482;-86
2023/06/15 10:11:42;;;;;;;5.80;4.83;;;30.40;26.90;;;;;;4918643;29;20544;-86
2023/06/15 10:14:16;;;;;;;4.57;4.17;;;30.60;27.10;;;;;;4932264;29;21131;-87
2023/06/15 10:16:49;;;;;;;4.70;4.30;;;30.60;26.20;;;;;;4929278;29;20482;-88
2023/06/15 10:19:18;;;;;;;4.50;3.87;;;30.70;27.10;;;;;;4935753;29;20510;-88
2023/06/15 10:21:46;;;;;;;4.57;4.17;;;30.80;26.80;;;;;;4920229;29;20451;-86
2023/06/15 10:24:16;;;;;;;5.70;4.17;;;30.80;26.10;;;;;;4931959;28;20584;-86
2023/06/15 10:26:44;;;;;;;5.40;4.10;;;30.20;26.90;;;;;;4926633;29;20448;-86
2023/06/15 10:29:17;;;;;;;4.40;4.00;;;30.40;27.30;;;;;;4917939;29;20477;-86
2023/06/15 10:31:51;;;;;;;4.60;4.20;;;30.50;26.50;;;;;;4911501;29;20834;-86
2023/06/15 10:34:27;;;;;;;4.73;4.33;;;30.60;27.20;;;;;;4923574;29;20454;-86
2023/06/15 10:37:02;;;;;;;4.40;3.60;;;30.50;27.50;;;;;;4917006;29;20513;-87
2023/06/15 10:39:36;;;;;;;4.63;4.20;;;30.80;27.10;;;;;;4916721;29;20552;-86
2023/06/15 10:42:08;;;;;;;4.20;3.80;;;31.00;26.70;;;;;;4924760;29;20537;-87
2023/06/15 10:44:35;;;;;;;4.03;3.20;;;30.20;26.60;;;;;;4910492;29;20458;-86
2023/06/15 10:47:08;;;;;;;4.47;3.60;;;29.70;27.20;;;;;;4906839;29;20450;-87
2023/06/15 10:49:35;;;;;;;5.20;4.30;;;29.70;27.40;;;;;;4911450;29;20966;-88
2023/06/15 10:52:04;;;;;;;3.60;3.30;;;30.00;27.20;;;;;;4923466;29;21080;-88
2023/06/15 10:54:31;;;;;;;4.33;3.43;;;30.50;27.80;;;;;;4911314;29;20458;-87
2023/06/15 10:56:58;;;;;;;4.40;3.50;;;30.50;26.50;;;;;;4902801;29;20485;-86
2023/06/15 10:59:47;;;;;;;4.67;3.73;;;30.70;26.70;;;;;;4923796;29;20476;-87
2023/06/15 11:02:47;;;;;;;4.57;4.20;;;31.00;27.00;;;;;;4912757;29;20461;-87
2023/06/15 11:05:19;;;;;;;2.80;2.60;;;31.20;26.20;;;;;;4914783;29;20517;-87
2023/06/15 11:07:49;;;;;;;3.73;3.43;;;31.40;26.00;;;;;;4922495;29;20458;-86
2023/06/15 11:10:22;;;;;;;3.73;3.43;;;31.00;25.20;;;;;;4900084;29;20856;-86
2023/06/15 11:12:59;;;;;;;4.93;3.93;;;30.70;26.10;;;;;;4918982;29;20471;-87
2023/06/15 11:15:31;;;;;;;3.33;2.90;;;31.00;26.30;;;;;;4923076;29;20479;-87
2023/06/15 11:17:59;;;;;;;7.80;3.33;;;31.10;25.50;;;;;;4905858;29;20474;-86
2023/06/15 11:20:59;;;;;;;7.13;3.50;;;30.70;25.90;;;;;;4916626;29;21966;-86
2023/06/15 11:23:29;;;;;;;4.40;3.50;;;31.00;26.10;;;;;;4940456;28;20465;-87
2023/06/15 11:25:57;;;;;;;4.97;3.50;;;31.30;25.50;;;;;;4929904;29;20775;-87
2023/06/15 11:28:25;;;;;;;3.50;3.07;;;31.50;25.20;;;;;;4919511;29;20480;-87
2023/06/15 11:30:53;;;;;;;3.47;3.00;;;31.60;25.00;;;;;;4937997;29;20533;-87
2023/06/15 11:33:27;;;;;;;4.23;3.87;;;31.50;25.60;;;;;;4932281;29;20454;-86
2023/06/15 11:35:56;;;;;;;5.00;3.17;;;31.80;25.60;;;;;;4904290;29;20469;-86
2023/06/15 11:38:26;;;;;;;4.20;3.10;;;31.50;26.20;;;;;;4912112;29;20474;-86
2023/06/15 11:41:00;;;;;;;4.17;3.10;;;32.00;26.40;;;;;;4930693;29;20485;-87
2023/06/15 11:43:32;;;;;;;3.73;3.40;;;32.40;24.40;;;;;;4907127;29;20466;-86
2023/06/15 11:45:59;;;;;;;3.87;3.47;;;32.70;26.00;;;;;;4907168;29;21850;-88
2023/06/15 11:48:26;;;;;;;4.30;3.20;;;32.70;25.20;;;;;;4919416;29;20475;-87
2023/06/15 11:50:53;;;;;;;5.27;3.47;;;32.70;25.30;;;;;;4907116;29;20453;-87
2023/06/15 11:53:21;;;;;;;3.80;3.30;;;32.50;24.40;;;;;;4918147;29;20450;-87
2023/06/15 11:55:48;;;;;;;3.43;3.13;;;32.30;25.40;;;;;;4915749;29;20450;-88
2023/06/15 11:58:16;;;;;;;3.73;3.27;;;31.90;25.60;;;;;;4904899;29;20514;-88
2023/06/15 12:00:44;;;;;;;6.67;3.17;;;31.50;26.40;;;;;;4937765;29;20470;-87
2023/06/15 12:03:12;;;;;;;3.50;3.20;;;31.20;26.30;;;;;;4918740;29;20469;-85
2023/06/15 12:05:39;;;;;;;2.80;2.60;;;31.00;27.00;;;;;;4922502;29;20451;-89
2023/06/15 12:08:07;;;;;;;3.80;3.50;;;31.20;25.80;;;;;;4933335;28;20464;-87
2023/06/15 12:10:37;;;;;;;3.50;3.20;;;31.30;26.50;;;;;;4922200;29;20465;-87
2023/06/15 12:13:05;;;;;;;8.03;3.40;;;31.60;27.30;;;;;;4924452;29;20451;-86
2023/06/15 12:15:32;;;;;;;3.70;3.40;;;31.50;25.40;;;;;;4911213;29;20529;-86
2023/06/15 12:17:59;;;;;;;11.60;3.90;;;31.30;25.10;;;;;;4930788;29;21052;-88
2023/06/15 12:20:29;;;;;;;3.70;3.30;;;31.20;26.10;;;;;;4920109;29;20462;-88
2023/06/15 12:22:56;;;;;;;3.50;3.20;;;31.10;26.60;;;;;;4905854;29;20450;-87
2023/06/15 12:25:44;;;;;;;3.37;3.17;;;31.10;26.80;;;;;;4917738;29;20447;-87
2023/06/15 12:28:16;;;;;;;3.73;3.00;;;31.10;26.00;;;;;;4941433;29;20462;-87
2023/06/15 12:30:43;;;;;;;4.70;3.30;;;30.90;25.50;;;;;;4903441;29;20446;-89
2023/06/15 12:33:27;;;;;;;4.80;3.27;;;30.90;25.10;;;;;;4924943;29;21029;-88
2023/06/15 12:35:55;;;;;;;4.60;4.20;;;31.10;25.30;;;;;;4901581;29;20447;-89
2023/06/15 12:38:23;;;;;;;8.27;3.13;;;31.40;25.30;;;;;;4917170;29;20977;-86
2023/06/15 12:40:53;;;;;;;4.07;3.43;;;31.50;26.10;;;;;;4929779;28;20803;-89
2023/06/15 12:43:21;;;;;;;3.70;3.40;;;31.60;26.30;;;;;;4916487;29;20440;-88
2023/06/15 12:45:48;;;;;;;3.80;3.30;;;31.60;26.10;;;;;;4901382;29;20457;-88
2023/06/15 12:48:15;;;;;;;4.07;3.67;;;31.50;26.80;;;;;;4925301;29;20476;-87
2023/06/15 12:50:42;;;;;;;3.40;3.10;;;31.60;26.90;;;;;;4918683;29;20459;-88
2023/06/15 12:53:09;;;;;;;7.83;3.70;;;31.50;25.70;;;;;;4931517;29;20463;-87